Reklama

Seznam meteostanic a jejich METAR

Vyhledat místa podle abecedy:
A B C D E F G H I J K L M N O P Q R S T U V W X Y Z

Filtrovat:

ID stanice:
a/nebo
Název místa (fulltext):
 
Místo (ID)Naposledy načteno 
Doksany - Litoměřice (Doksany) 07.04.2020 23:00 UTC Zobrazit data
Místo: Doksany - Litoměřice
Teplota: 3 °C (pocitová: -0.6 °C)
Vítr: 1 m/s z(e) 0°
Počasí:
Dohlednost: 18 km
Zákl. oblačnosti: N/A
Vlhkost: 81%
Dukovany (Dukovany) 07.04.2020 23:00 UTC Zobrazit data
Místo: Dukovany
Teplota: 7 °C (pocitová: 1.2 °C)
Vítr: 4 m/s z(e) 70°
Počasí:
Dohlednost: 27 km
Zákl. oblačnosti: N/A
Vlhkost: 39%
Dakar (GOOY) 07.04.2020 23:00 UTC Zobrazit METAR
GOOY 072300Z 36010KT 8000 NSC 22/19 Q1011
Damascus (OSDI) 06.04.2020 23:00 UTC Zobrazit METAR
OSDI 062300Z 25007KT CAVOK 08/05 Q1016
Debrecen (LHDC) 07.04.2020 16:45 UTC Zobrazit METAR
LHDC 071645Z AUTO 30006KT CAVOK 17/M06 Q1031
Delhi (VIDP) 07.04.2020 23:00 UTC Zobrazit METAR
VIDP 072300Z 29006KT 2500 HZ SCT030 SCT100 22/11 Q1009 NOSIG
Dhaka (VGZR) Zatím nenačteno  
Diego Garcia (FJDG) 07.04.2020 22:55 UTC Zobrazit METAR
FJDG 072255Z 25006KT 9999 FEW021 BKN100 28/25 A2981 RMK SLP091 T02820254
Djibouti (HDAM) 07.04.2020 10:00 UTC Zobrazit METAR
HDAM 071000Z 08009KT 9999 FEW023 32/25 Q1012
Dnipropetrovs'k (UKDD) 12.08.2013 14:00 UTC Zobrazit METAR
UKDD 121400Z CAVOK 33/13 Q1012 08090070 NOSIG
Dodoma (HTDO) 07.04.2020 04:00 UTC Zobrazit METAR
HTDO 070400Z 08008KT 9999 FEW005 SCT017 BKN080 21/19 Q1018 NOSIG
Doha (OTBD) 07.04.2020 23:00 UTC Zobrazit METAR
OTBD 072300Z AUTO 21005KT 180V240 CAVOK 26/13 Q1009 NOSIG
Dortmund (EDLW) 07.04.2020 13:50 UTC Zobrazit METAR
EDLW 071350Z 04007KT 350V100 9999 FEW042 18/08 Q1030
Dresden (EDDC) 07.04.2020 22:50 UTC Zobrazit METAR
EDDC 072250Z 02002KT CAVOK 12/07 Q1031
Dublin (EIDW) 07.04.2020 23:00 UTC Zobrazit METAR
EIDW 072300Z 17005KT 9999 FEW017 BKN250 06/02 Q1025 NOSIG
Dubrovnik (LDDU) 07.04.2020 23:00 UTC Zobrazit METAR
LDDU 072300Z 03020KT 340V090 CAVOK 16/M10 Q1026
Dushanbe (UTDD) Zatím nenačteno  
Dusseldorf (EDDL) 07.04.2020 22:50 UTC Zobrazit METAR
EDDL 072250Z 07002KT CAVOK 12/08 Q1027 NOSIG
Dzaoudzi (FMCZ) 07.04.2020 23:00 UTC Zobrazit METAR
FMCZ 072300Z AUTO 34003KT 310V010 CAVOK 26/24 Q1012 NOSIG
Reklama

Počasí na Váš email

Emaily jsou bez reklamy a bez spamu



Odhlásit newsletter

Reklama


Lunární kalendář

  • 15.04.
  • 23.04.
  • 30.04.
  • 07.05.





Vyhledat na internetu:
Reklama